createdAt,value
2023-02-21T00:01:13.114Z,1.00
2023-02-21T00:04:53.867Z,1.70
2023-02-21T00:08:34.529Z,0.60
2023-02-21T00:12:18.283Z,0.60
2023-02-21T00:15:59.022Z,0.90
2023-02-21T00:19:46.030Z,0.40
2023-02-21T00:23:26.791Z,0.60
2023-02-21T00:27:07.449Z,1.10
2023-02-21T00:30:48.025Z,1.50
2023-02-21T00:34:31.947Z,1.20
2023-02-21T00:38:14.914Z,1.10
2023-02-21T00:42:02.131Z,0.60
2023-02-21T00:45:48.549Z,0.60
2023-02-21T00:49:30.349Z,0.50
2023-02-21T00:53:10.975Z,0.50
2023-02-21T00:56:51.438Z,0.50
2023-02-21T01:00:41.339Z,0.30
2023-02-21T01:04:22.279Z,0.80
2023-02-21T01:08:02.792Z,1.90
2023-02-21T01:12:01.624Z,0.60
2023-02-21T01:15:44.151Z,0.80
2023-02-21T01:19:24.681Z,0.40
2023-02-21T01:23:06.329Z,1.10
2023-02-21T01:26:46.862Z,0.80
2023-02-21T01:30:27.708Z,0.90
2023-02-21T01:34:08.522Z,0.70
2023-02-21T01:37:49.383Z,0.70
2023-02-21T01:41:30.811Z,1.30
2023-02-21T01:45:37.138Z,0.80
2023-02-21T01:49:21.324Z,0.50
2023-02-21T01:53:03.327Z,0.40
2023-02-21T01:56:43.821Z,0.60
2023-02-21T02:00:28.064Z,2.30
2023-02-21T02:04:11.453Z,1.10
2023-02-21T02:07:53.149Z,0.90
2023-02-21T02:11:51.682Z,0.50
2023-02-21T02:15:24.109Z,2.00
2023-02-21T02:18:54.981Z,0.80
2023-02-21T02:22:45.820Z,2.30
2023-02-21T02:26:36.058Z,0.40
2023-02-21T02:30:22.594Z,0.40
2023-02-21T02:34:22.085Z,1.20
2023-02-21T02:38:07.441Z,1.30
2023-02-21T02:41:55.867Z,0.60
2023-02-21T02:45:41.440Z,1.00
2023-02-21T02:49:08.314Z,1.00
2023-02-21T02:52:30.098Z,0.60
2023-02-21T02:55:58.865Z,0.80
2023-02-21T02:59:26.146Z,1.20
2023-02-21T03:02:53.967Z,2.00
2023-02-21T03:06:26.954Z,1.10
2023-02-21T03:09:54.845Z,1.00
2023-02-21T03:13:27.625Z,1.30
2023-02-21T03:16:55.985Z,4.20
2023-02-21T03:20:18.807Z,2.70
2023-02-21T03:23:43.319Z,3.30
2023-02-21T03:27:10.000Z,2.10
2023-02-21T03:30:46.256Z,1.80
2023-02-21T03:34:08.087Z,1.80
2023-02-21T03:37:31.277Z,2.10
2023-02-21T03:40:53.414Z,0.50
2023-02-21T03:44:15.539Z,1.30
2023-02-21T03:47:37.696Z,2.00
2023-02-21T03:51:04.850Z,1.30
2023-02-21T03:54:30.578Z,1.30
2023-02-21T03:57:53.170Z,2.60
2023-02-21T04:01:16.240Z,1.00
2023-02-21T04:04:38.714Z,1.00
2023-02-21T04:08:07.097Z,3.80
2023-02-21T04:11:29.122Z,1.80
2023-02-21T04:14:52.481Z,5.60
2023-02-21T04:18:15.096Z,2.90
2023-02-21T04:21:37.340Z,2.90
2023-02-21T04:25:02.323Z,1.70
2023-02-21T04:28:28.741Z,2.50
2023-02-21T04:31:51.925Z,2.10
2023-02-21T04:35:13.919Z,5.40
2023-02-21T04:38:40.655Z,3.10
2023-02-21T04:42:02.486Z,2.40
2023-02-21T04:45:25.200Z,2.60
2023-02-21T04:48:51.570Z,3.40
2023-02-21T04:52:13.418Z,4.20
2023-02-21T04:55:35.272Z,3.90
2023-02-21T04:58:57.661Z,5.00
2023-02-21T05:02:19.526Z,5.30
2023-02-21T05:05:41.313Z,5.50
2023-02-21T05:09:03.872Z,1.70
2023-02-21T05:12:25.753Z,5.00
2023-02-21T05:15:50.694Z,3.20
2023-02-21T05:19:12.947Z,3.60
2023-02-21T05:22:35.968Z,3.90
2023-02-21T05:25:59.900Z,2.40
2023-02-21T05:29:24.179Z,3.40
2023-02-21T05:32:46.408Z,4.90
2023-02-21T05:36:08.361Z,5.10
2023-02-21T05:39:30.374Z,2.70
2023-02-21T05:42:52.212Z,3.80
2023-02-21T05:46:43.662Z,8.10
2023-02-21T05:50:06.066Z,4.10
2023-02-21T05:53:27.880Z,6.20
2023-02-21T05:56:50.891Z,2.70
2023-02-21T06:00:17.790Z,3.60
2023-02-21T06:03:40.093Z,5.30
2023-02-21T06:07:01.947Z,3.30
2023-02-21T06:10:23.729Z,3.80
2023-02-21T06:13:45.705Z,4.00
2023-02-21T06:17:07.569Z,4.90
2023-02-21T06:20:29.642Z,3.00
2023-02-21T06:23:54.241Z,6.00
2023-02-21T06:27:16.204Z,2.40
2023-02-21T06:30:38.101Z,7.30
2023-02-21T06:34:00.102Z,5.20
2023-02-21T06:37:21.910Z,2.90
2023-02-21T06:40:44.181Z,5.30
2023-02-21T06:44:06.244Z,5.30
2023-02-21T06:47:28.018Z,5.60
2023-02-21T06:50:49.992Z,2.50
2023-02-21T06:54:12.818Z,3.70
2023-02-21T06:57:34.657Z,5.40
2023-02-21T07:00:58.543Z,7.60
2023-02-21T07:04:20.584Z,3.60
2023-02-21T07:07:43.388Z,4.00
2023-02-21T07:11:05.882Z,6.40
2023-02-21T07:14:27.873Z,6.90
2023-02-21T07:17:49.885Z,3.10
2023-02-21T07:21:15.101Z,3.80
2023-02-21T07:24:37.257Z,6.80
2023-02-21T07:27:59.050Z,3.90
2023-02-21T07:31:21.391Z,4.10
2023-02-21T07:34:44.055Z,6.00
2023-02-21T07:38:06.958Z,7.40
2023-02-21T07:41:28.817Z,6.40
2023-02-21T07:44:57.017Z,4.70
2023-02-21T07:48:18.919Z,4.30
2023-02-21T07:51:40.872Z,4.10
2023-02-21T07:55:02.748Z,4.70
2023-02-21T07:58:25.738Z,4.30
2023-02-21T08:01:48.062Z,6.80
2023-02-21T08:05:10.123Z,5.40
2023-02-21T08:08:32.052Z,5.80
2023-02-21T08:11:54.027Z,3.80
2023-02-21T08:15:16.015Z,5.60
2023-02-21T08:18:37.895Z,3.80
2023-02-21T08:21:59.747Z,4.50
2023-02-21T08:25:21.538Z,4.60
2023-02-21T08:28:43.337Z,6.10
2023-02-21T08:32:05.389Z,6.40
2023-02-21T08:35:27.392Z,4.10
2023-02-21T08:38:49.192Z,4.20
2023-02-21T08:42:12.036Z,8.00
2023-02-21T08:45:35.671Z,3.00
2023-02-21T08:48:57.483Z,5.80
2023-02-21T08:52:21.927Z,4.10
2023-02-21T08:55:43.878Z,2.20
2023-02-21T08:59:05.980Z,3.30
2023-02-21T09:02:32.840Z,3.60
2023-02-21T09:05:55.336Z,5.60
2023-02-21T09:09:17.403Z,5.40
2023-02-21T09:12:39.939Z,4.90
2023-02-21T09:16:02.878Z,4.20
2023-02-21T09:19:24.849Z,3.70
2023-02-21T09:22:49.616Z,4.30
2023-02-21T09:26:17.584Z,5.90
2023-02-21T09:29:46.394Z,3.90
2023-02-21T09:33:11.102Z,3.90
2023-02-21T09:36:36.586Z,4.30
2023-02-21T09:39:59.468Z,3.10
2023-02-21T09:43:34.284Z,3.90
2023-02-21T09:47:03.409Z,5.90
2023-02-21T09:50:31.335Z,4.40
2023-02-21T09:53:56.763Z,4.70
2023-02-21T09:57:18.845Z,3.30
2023-02-21T10:00:41.159Z,3.20
2023-02-21T10:04:22.496Z,3.10
2023-02-21T10:07:58.010Z,2.20
2023-02-21T10:11:38.963Z,6.40
2023-02-21T10:15:19.439Z,3.70
2023-02-21T10:19:19.020Z,3.10
2023-02-21T10:22:45.056Z,5.60
2023-02-21T10:26:28.116Z,4.30
2023-02-21T10:30:12.222Z,5.00
2023-02-21T10:33:37.986Z,5.40
2023-02-21T10:37:22.910Z,5.10
2023-02-21T10:41:04.735Z,5.10
2023-02-21T10:44:32.002Z,7.30
2023-02-21T10:48:05.131Z,3.80
2023-02-21T10:51:37.513Z,7.30
2023-02-21T10:55:01.193Z,3.60
2023-02-21T10:58:28.746Z,4.40
2023-02-21T11:01:53.582Z,8.90
2023-02-21T11:05:16.574Z,5.60
2023-02-21T11:08:43.660Z,4.30
2023-02-21T11:12:26.297Z,3.50
2023-02-21T11:16:17.830Z,4.30
2023-02-21T11:19:49.132Z,4.90
2023-02-21T11:23:33.684Z,4.40
2023-02-21T11:27:00.097Z,3.10
2023-02-21T11:30:22.677Z,6.00
2023-02-21T11:34:05.622Z,9.80
2023-02-21T11:37:29.017Z,4.20
2023-02-21T11:40:59.017Z,3.70
2023-02-21T11:44:33.011Z,7.00
2023-02-21T11:48:06.486Z,7.80
2023-02-21T11:52:23.267Z,5.90
2023-02-21T11:56:03.170Z,3.30
2023-02-21T11:59:39.935Z,3.40
2023-02-21T12:03:58.705Z,8.50
2023-02-21T12:07:56.696Z,5.40
2023-02-21T12:12:02.300Z,6.90
2023-02-21T12:16:21.809Z,5.30
2023-02-21T12:20:43.133Z,5.20
2023-02-21T12:24:59.847Z,3.60
2023-02-21T13:13:55.758Z,4.00
2023-02-21T13:17:20.871Z,11.10
2023-02-21T13:20:48.091Z,4.20
2023-02-21T13:24:36.328Z,3.70
2023-02-21T13:28:24.834Z,3.80
2023-02-21T13:31:47.856Z,5.20
2023-02-21T13:35:12.253Z,3.60
2023-02-21T13:38:34.441Z,3.40
2023-02-21T13:42:05.514Z,3.90
2023-02-21T13:45:28.230Z,3.70
2023-02-21T13:49:27.421Z,4.20
2023-02-21T13:56:17.240Z,7.50
2023-02-21T13:59:39.083Z,2.70
2023-02-21T14:06:56.701Z,3.20
2023-02-21T14:11:12.589Z,2.30
2023-02-21T14:14:39.873Z,4.80
2023-02-21T14:18:06.500Z,5.30
2023-02-21T14:22:03.417Z,6.10
2023-02-21T14:25:26.455Z,4.60
2023-02-21T14:28:57.716Z,3.30
2023-02-21T14:32:25.903Z,2.80
2023-02-21T14:36:16.108Z,4.20
2023-02-21T14:39:41.677Z,9.20
2023-02-21T14:43:24.611Z,9.90
2023-02-21T14:46:55.411Z,18.60
2023-02-21T14:50:32.455Z,14.00
2023-02-21T14:54:07.467Z,21.50
2023-02-21T14:58:33.585Z,22.30
2023-02-21T15:02:18.722Z,12.90
2023-02-21T15:06:03.788Z,11.60
2023-02-21T15:09:26.961Z,10.70
2023-02-21T15:12:51.443Z,9.80
2023-02-21T15:20:16.955Z,11.00
2023-02-21T15:23:44.443Z,14.30
2023-02-21T15:27:19.590Z,11.30
2023-02-21T15:30:59.221Z,15.50
2023-02-21T15:34:21.636Z,9.00
2023-02-21T15:37:45.700Z,11.50
2023-02-21T15:42:02.768Z,15.00
2023-02-21T15:45:32.099Z,14.50
2023-02-21T15:52:39.029Z,10.70
2023-02-21T15:56:32.988Z,11.50
2023-02-21T16:00:19.059Z,16.10
2023-02-21T16:03:44.858Z,15.30
2023-02-21T16:07:11.438Z,13.60
2023-02-21T16:10:34.834Z,10.70
2023-02-21T16:13:56.946Z,16.00
2023-02-21T16:17:37.161Z,15.50
2023-02-21T16:21:04.797Z,10.20
2023-02-21T16:24:32.305Z,13.60
2023-02-21T16:27:56.973Z,8.70
2023-02-21T16:31:33.100Z,7.60
2023-02-21T16:34:55.118Z,8.70
2023-02-21T16:38:19.140Z,12.60
2023-02-21T16:41:41.030Z,12.20
2023-02-21T16:45:03.192Z,13.20
2023-02-21T16:48:28.996Z,7.90
2023-02-21T16:51:51.157Z,12.40
2023-02-21T16:55:18.837Z,9.30
2023-02-21T16:58:51.549Z,13.20
2023-02-21T17:02:15.315Z,11.70
2023-02-21T17:05:37.233Z,17.00
2023-02-21T17:09:00.511Z,13.60
2023-02-21T17:12:22.978Z,10.20
2023-02-21T17:15:45.541Z,10.20
2023-02-21T17:19:20.870Z,10.90
2023-02-21T17:22:43.195Z,8.40
2023-02-21T17:26:05.315Z,8.90
2023-02-21T17:29:27.216Z,8.40
2023-02-21T17:32:49.449Z,9.20
2023-02-21T17:36:22.310Z,8.00
2023-02-21T17:39:44.182Z,15.20
2023-02-21T17:43:08.961Z,11.10
2023-02-21T17:46:32.171Z,10.50
2023-02-21T17:50:01.838Z,12.20
2023-02-21T17:53:24.600Z,14.90
2023-02-21T17:56:46.562Z,11.90
2023-02-21T18:00:13.703Z,11.40
2023-02-21T18:03:38.407Z,15.00
2023-02-21T18:07:00.516Z,12.70
2023-02-21T18:10:25.200Z,13.80
2023-02-21T18:13:47.546Z,13.60
2023-02-21T18:17:09.975Z,12.50
2023-02-21T18:20:32.253Z,11.70
2023-02-21T18:23:54.384Z,13.30
2023-02-21T18:27:16.501Z,16.80
2023-02-21T18:30:38.428Z,10.10
2023-02-21T18:34:01.011Z,11.20
2023-02-21T18:37:22.959Z,12.60
2023-02-21T18:40:47.882Z,13.40
2023-02-21T18:44:11.640Z,10.80
2023-02-21T18:47:37.119Z,14.60
2023-02-21T18:50:59.718Z,9.80
2023-02-21T18:54:21.818Z,16.20
2023-02-21T18:57:44.147Z,11.70
2023-02-21T19:01:07.125Z,10.20
2023-02-21T19:04:33.485Z,11.90
2023-02-21T19:07:56.532Z,14.40
2023-02-21T19:11:22.547Z,15.40
2023-02-21T19:14:46.441Z,14.10
2023-02-21T19:18:14.896Z,10.10
2023-02-21T19:21:36.711Z,9.30
2023-02-21T19:24:59.421Z,10.40
2023-02-21T19:28:24.183Z,13.10
2023-02-21T19:31:47.624Z,8.10
2023-02-21T19:35:09.688Z,9.50
2023-02-21T19:38:31.659Z,9.10
2023-02-21T19:41:54.303Z,9.60
2023-02-21T19:45:19.348Z,15.50
2023-02-21T19:48:41.223Z,10.40
2023-02-21T19:52:05.707Z,17.00
2023-02-21T19:55:29.770Z,9.50
2023-02-21T19:58:53.423Z,23.80
2023-02-21T20:02:16.214Z,12.70
2023-02-21T20:05:38.266Z,8.20
2023-02-21T20:09:00.243Z,9.30
2023-02-21T20:12:23.060Z,13.80
2023-02-21T20:15:45.161Z,11.00
2023-02-21T20:19:07.634Z,12.80
2023-02-21T20:22:33.941Z,13.20
2023-02-21T20:25:55.804Z,7.90
2023-02-21T20:29:19.752Z,9.70
2023-02-21T20:32:41.838Z,10.80
2023-02-21T20:36:04.609Z,13.60
2023-02-21T20:39:28.976Z,11.90
2023-02-21T20:42:50.905Z,15.30
2023-02-21T20:46:13.036Z,15.70
2023-02-21T20:49:37.678Z,13.80
2023-02-21T20:52:59.631Z,11.20
2023-02-21T20:56:23.729Z,16.00
2023-02-21T20:59:46.309Z,8.70
2023-02-21T21:03:10.058Z,14.00
2023-02-21T21:06:32.133Z,9.20
2023-02-21T21:09:54.118Z,7.30
2023-02-21T21:13:17.076Z,16.50
2023-02-21T21:16:38.991Z,9.90
2023-02-21T21:20:00.811Z,14.50
2023-02-21T21:23:26.038Z,12.70
2023-02-21T21:26:53.072Z,9.70
2023-02-21T21:33:58.523Z,10.50
2023-02-21T21:37:23.348Z,11.00
2023-02-21T21:40:49.910Z,10.50
2023-02-21T21:47:52.575Z,9.50
2023-02-21T21:51:14.833Z,8.10
2023-02-21T21:54:41.190Z,8.70
2023-02-21T21:58:10.613Z,6.10
2023-02-21T22:01:33.593Z,7.30
2023-02-21T22:04:58.166Z,6.60
2023-02-21T22:08:22.709Z,5.20
2023-02-21T22:11:50.425Z,10.70
2023-02-21T22:15:14.941Z,4.60
2023-02-21T22:18:42.450Z,8.10
2023-02-21T22:22:26.975Z,6.50
2023-02-21T22:25:55.021Z,10.30
2023-02-21T22:29:20.538Z,5.20
2023-02-21T22:32:50.245Z,4.10
2023-02-21T22:36:20.114Z,8.60
2023-02-21T22:39:51.717Z,7.10
2023-02-21T22:43:21.607Z,8.80
2023-02-21T22:46:58.429Z,4.30
2023-02-21T22:50:48.502Z,4.60
2023-02-21T22:54:21.800Z,6.10
2023-02-21T22:58:08.415Z,6.60
2023-02-21T23:01:50.909Z,5.00
2023-02-21T23:05:19.956Z,6.50
2023-02-21T23:08:51.492Z,5.40
2023-02-21T23:12:27.371Z,6.70
2023-02-21T23:16:03.957Z,8.90
2023-02-21T23:19:40.991Z,5.50
2023-02-21T23:23:13.200Z,4.60
2023-02-21T23:26:44.122Z,4.30
2023-02-21T23:30:24.964Z,9.80
2023-02-21T23:33:52.706Z,3.90
2023-02-21T23:37:24.929Z,5.10
2023-02-21T23:41:10.363Z,5.40
2023-02-21T23:44:59.654Z,5.50
2023-02-21T23:51:46.986Z,5.30
2023-02-21T23:55:17.934Z,5.20
2023-02-21T23:59:32.274Z,4.20
